sensor_id;sensor_type;location;lat;lon;timestamp;temperature;humidity
30250;DHT22;17064;47.974;13.826;2023-05-23T00:02:19;14.30;99.90
30250;DHT22;17064;47.974;13.826;2023-05-23T00:07:20;14.20;99.90
30250;DHT22;17064;47.974;13.826;2023-05-23T00:12:20;14.10;99.90
30250;DHT22;17064;47.974;13.826;2023-05-23T00:17:21;14.00;99.90
30250;DHT22;17064;47.974;13.826;2023-05-23T00:22:24;14.00;99.90
30250;DHT22;17064;47.974;13.826;2023-05-23T00:27:25;14.00;99.90
30250;DHT22;17064;47.974;13.826;2023-05-23T00:32:26;13.80;99.90
30250;DHT22;17064;47.974;13.826;2023-05-23T00:37:26;13.70;99.90
30250;DHT22;17064;47.974;13.826;2023-05-23T00:42:27;13.60;99.90
30250;DHT22;17064;47.974;13.826;2023-05-23T00:47:28;13.50;99.90
30250;DHT22;17064;47.974;13.826;2023-05-23T00:52:29;13.50;99.90
30250;DHT22;17064;47.974;13.826;2023-05-23T00:57:30;13.30;99.90
30250;DHT22;17064;47.974;13.826;2023-05-23T01:02:32;13.30;99.90
30250;DHT22;17064;47.974;13.826;2023-05-23T01:07:36;13.30;99.90
30250;DHT22;17064;47.974;13.826;2023-05-23T01:17:50;13.50;99.90
30250;DHT22;17064;47.974;13.826;2023-05-23T01:28:02;13.50;99.90
30250;DHT22;17064;47.974;13.826;2023-05-23T01:33:06;13.50;99.90
30250;DHT22;17064;47.974;13.826;2023-05-23T01:38:07;13.40;99.90
30250;DHT22;17064;47.974;13.826;2023-05-23T01:43:08;13.40;99.90
30250;DHT22;17064;47.974;13.826;2023-05-23T01:48:09;13.40;99.90
30250;DHT22;17064;47.974;13.826;2023-05-23T01:53:12;13.40;99.90
30250;DHT22;17064;47.974;13.826;2023-05-23T01:58:13;13.30;99.90
30250;DHT22;17064;47.974;13.826;2023-05-23T02:03:14;13.20;99.90
30250;DHT22;17064;47.974;13.826;2023-05-23T02:08:15;13.10;99.90
30250;DHT22;17064;47.974;13.826;2023-05-23T02:13:16;13.10;99.90
30250;DHT22;17064;47.974;13.826;2023-05-23T02:18:17;13.00;99.90
30250;DHT22;17064;47.974;13.826;2023-05-23T02:23:17;13.00;99.90
30250;DHT22;17064;47.974;13.826;2023-05-23T02:28:18;12.90;99.90
30250;DHT22;17064;47.974;13.826;2023-05-23T02:33:19;13.00;99.90
30250;DHT22;17064;47.974;13.826;2023-05-23T02:38:19;13.00;99.90
30250;DHT22;17064;47.974;13.826;2023-05-23T02:43:20;13.20;99.90
30250;DHT22;17064;47.974;13.826;2023-05-23T02:48:21;13.30;99.90
30250;DHT22;17064;47.974;13.826;2023-05-23T02:53:21;13.20;99.90
30250;DHT22;17064;47.974;13.826;2023-05-23T02:58:22;13.10;99.90
30250;DHT22;17064;47.974;13.826;2023-05-23T03:03:23;13.10;99.90
30250;DHT22;17064;47.974;13.826;2023-05-23T03:08:24;13.20;99.90
30250;DHT22;17064;47.974;13.826;2023-05-23T03:13:25;13.20;99.90
30250;DHT22;17064;47.974;13.826;2023-05-23T03:18:26;13.20;99.90
30250;DHT22;17064;47.974;13.826;2023-05-23T03:23:26;13.20;99.90
30250;DHT22;17064;47.974;13.826;2023-05-23T03:28:27;13.30;99.90
30250;DHT22;17064;47.974;13.826;2023-05-23T03:33:28;13.40;99.90
30250;DHT22;17064;47.974;13.826;2023-05-23T03:38:28;13.40;99.90
30250;DHT22;17064;47.974;13.826;2023-05-23T03:43:29;13.60;99.90
30250;DHT22;17064;47.974;13.826;2023-05-23T03:48:30;13.70;99.90
30250;DHT22;17064;47.974;13.826;2023-05-23T03:53:30;13.80;99.90
30250;DHT22;17064;47.974;13.826;2023-05-23T03:58:31;14.00;99.90
30250;DHT22;17064;47.974;13.826;2023-05-23T04:03:32;14.10;99.90
30250;DHT22;17064;47.974;13.826;2023-05-23T04:08:32;14.10;99.90
30250;DHT22;17064;47.974;13.826;2023-05-23T04:13:33;14.10;99.90
30250;DHT22;17064;47.974;13.826;2023-05-23T04:18:34;14.20;99.90
30250;DHT22;17064;47.974;13.826;2023-05-23T04:23:38;14.20;99.90
30250;DHT22;17064;47.974;13.826;2023-05-23T04:28:39;14.30;99.90
30250;DHT22;17064;47.974;13.826;2023-05-23T04:33:40;14.50;99.90
30250;DHT22;17064;47.974;13.826;2023-05-23T04:38:40;14.60;99.90
30250;DHT22;17064;47.974;13.826;2023-05-23T04:43:41;14.80;99.90
30250;DHT22;17064;47.974;13.826;2023-05-23T04:48:42;15.00;99.90
30250;DHT22;17064;47.974;13.826;2023-05-23T04:53:44;15.10;99.90
30250;DHT22;17064;47.974;13.826;2023-05-23T04:58:47;15.30;99.90
30250;DHT22;17064;47.974;13.826;2023-05-23T05:03:49;15.60;99.90
30250;DHT22;17064;47.974;13.826;2023-05-23T05:08:50;15.90;99.90
30250;DHT22;17064;47.974;13.826;2023-05-23T05:13:51;16.20;99.90
30250;DHT22;17064;47.974;13.826;2023-05-23T05:18:51;16.50;99.90
30250;DHT22;17064;47.974;13.826;2023-05-23T05:23:53;16.90;99.90
30250;DHT22;17064;47.974;13.826;2023-05-23T05:28:54;17.20;99.90
30250;DHT22;17064;47.974;13.826;2023-05-23T05:33:54;17.60;99.90
30250;DHT22;17064;47.974;13.826;2023-05-23T05:38:55;17.80;99.90
30250;DHT22;17064;47.974;13.826;2023-05-23T05:43:56;18.00;99.90
30250;DHT22;17064;47.974;13.826;2023-05-23T05:48:56;18.30;99.90
30250;DHT22;17064;47.974;13.826;2023-05-23T05:53:57;18.60;99.90
30250;DHT22;17064;47.974;13.826;2023-05-23T05:58:58;18.70;99.90
30250;DHT22;17064;47.974;13.826;2023-05-23T06:03:58;18.70;99.90
30250;DHT22;17064;47.974;13.826;2023-05-23T06:08:59;18.90;99.90
30250;DHT22;17064;47.974;13.826;2023-05-23T06:14:00;19.10;99.90
30250;DHT22;17064;47.974;13.826;2023-05-23T06:19:00;19.10;99.90
30250;DHT22;17064;47.974;13.826;2023-05-23T06:24:01;19.10;99.90
30250;DHT22;17064;47.974;13.826;2023-05-23T06:29:02;19.10;99.90
30250;DHT22;17064;47.974;13.826;2023-05-23T06:34:03;19.10;99.90
30250;DHT22;17064;47.974;13.826;2023-05-23T06:39:03;19.20;99.90
30250;DHT22;17064;47.974;13.826;2023-05-23T06:44:04;19.20;99.90
30250;DHT22;17064;47.974;13.826;2023-05-23T06:49:05;19.30;99.90
30250;DHT22;17064;47.974;13.826;2023-05-23T06:54:06;19.60;99.90
30250;DHT22;17064;47.974;13.826;2023-05-23T06:59:06;20.10;99.90
30250;DHT22;17064;47.974;13.826;2023-05-23T07:04:07;20.60;99.90
30250;DHT22;17064;47.974;13.826;2023-05-23T07:09:08;20.90;99.90
30250;DHT22;17064;47.974;13.826;2023-05-23T07:14:10;21.30;99.90
30250;DHT22;17064;47.974;13.826;2023-05-23T07:19:11;21.40;99.90
30250;DHT22;17064;47.974;13.826;2023-05-23T07:24:12;21.10;99.90
30250;DHT22;17064;47.974;13.826;2023-05-23T07:29:13;21.20;99.90
30250;DHT22;17064;47.974;13.826;2023-05-23T07:34:13;21.50;99.90
30250;DHT22;17064;47.974;13.826;2023-05-23T07:39:14;21.40;99.90
30250;DHT22;17064;47.974;13.826;2023-05-23T07:44:17;21.30;99.90
30250;DHT22;17064;47.974;13.826;2023-05-23T07:49:18;21.00;99.90
30250;DHT22;17064;47.974;13.826;2023-05-23T07:54:19;21.00;99.90
30250;DHT22;17064;47.974;13.826;2023-05-23T07:59:20;21.30;99.90
30250;DHT22;17064;47.974;13.826;2023-05-23T08:04:22;21.30;99.90
30250;DHT22;17064;47.974;13.826;2023-05-23T08:09:22;21.20;99.90
30250;DHT22;17064;47.974;13.826;2023-05-23T08:14:23;21.20;99.90
30250;DHT22;17064;47.974;13.826;2023-05-23T08:19:24;21.20;99.90
30250;DHT22;17064;47.974;13.826;2023-05-23T08:24:25;21.30;99.90
30250;DHT22;17064;47.974;13.826;2023-05-23T08:29:26;21.80;99.90
30250;DHT22;17064;47.974;13.826;2023-05-23T08:34:27;22.40;99.90
30250;DHT22;17064;47.974;13.826;2023-05-23T08:39:28;22.90;99.90
30250;DHT22;17064;47.974;13.826;2023-05-23T08:44:28;23.30;99.90
30250;DHT22;17064;47.974;13.826;2023-05-23T08:49:29;23.50;99.90
30250;DHT22;17064;47.974;13.826;2023-05-23T08:54:31;23.60;99.20
30250;DHT22;17064;47.974;13.826;2023-05-23T08:59:32;23.40;98.90
30250;DHT22;17064;47.974;13.826;2023-05-23T09:04:34;23.10;99.20
30250;DHT22;17064;47.974;13.826;2023-05-23T09:09:34;22.90;98.50
30250;DHT22;17064;47.974;13.826;2023-05-23T09:14:35;22.60;99.80
30250;DHT22;17064;47.974;13.826;2023-05-23T09:19:40;22.40;99.90
30250;DHT22;17064;47.974;13.826;2023-05-23T09:24:42;22.40;99.90
30250;DHT22;17064;47.974;13.826;2023-05-23T09:29:43;22.70;99.90
30250;DHT22;17064;47.974;13.826;2023-05-23T09:34:56;23.10;99.90
30250;DHT22;17064;47.974;13.826;2023-05-23T09:40:01;23.00;99.40
30250;DHT22;17064;47.974;13.826;2023-05-23T09:45:06;22.90;98.80
30250;DHT22;17064;47.974;13.826;2023-05-23T09:50:07;22.80;99.70
30250;DHT22;17064;47.974;13.826;2023-05-23T09:55:08;23.20;99.90
30250;DHT22;17064;47.974;13.826;2023-05-23T10:00:11;23.50;99.90
30250;DHT22;17064;47.974;13.826;2023-05-23T10:05:19;23.60;99.70
30250;DHT22;17064;47.974;13.826;2023-05-23T10:10:24;23.80;97.70
30250;DHT22;17064;47.974;13.826;2023-05-23T10:15:27;23.50;98.90
30250;DHT22;17064;47.974;13.826;2023-05-23T10:20:32;23.60;97.20
30250;DHT22;17064;47.974;13.826;2023-05-23T10:25:34;23.50;99.10
30250;DHT22;17064;47.974;13.826;2023-05-23T10:30:37;23.90;97.60
30250;DHT22;17064;47.974;13.826;2023-05-23T10:41:01;23.00;99.60
30250;DHT22;17064;47.974;13.826;2023-05-23T10:46:02;22.60;99.90
30250;DHT22;17064;47.974;13.826;2023-05-23T10:51:07;22.50;99.90
30250;DHT22;17064;47.974;13.826;2023-05-23T10:56:13;23.10;99.90
30250;DHT22;17064;47.974;13.826;2023-05-23T11:01:18;23.50;98.80
30250;DHT22;17064;47.974;13.826;2023-05-23T11:06:41;23.30;97.90
30250;DHT22;17064;47.974;13.826;2023-05-23T11:16:53;23.00;99.80
30250;DHT22;17064;47.974;13.826;2023-05-23T11:21:59;23.40;98.90
30250;DHT22;17064;47.974;13.826;2023-05-23T11:27:00;23.90;98.70
30250;DHT22;17064;47.974;13.826;2023-05-23T11:32:12;24.20;98.10
30250;DHT22;17064;47.974;13.826;2023-05-23T11:37:13;24.30;96.40
30250;DHT22;17064;47.974;13.826;2023-05-23T11:42:14;24.60;95.60
30250;DHT22;17064;47.974;13.826;2023-05-23T11:47:15;24.50;95.40
30250;DHT22;17064;47.974;13.826;2023-05-23T11:52:16;24.00;95.10
30250;DHT22;17064;47.974;13.826;2023-05-23T11:57:17;22.90;96.60
30250;DHT22;17064;47.974;13.826;2023-05-23T12:02:18;22.00;99.30
30250;DHT22;17064;47.974;13.826;2023-05-23T12:07:19;21.20;99.90
30250;DHT22;17064;47.974;13.826;2023-05-23T12:12:20;20.60;99.90
30250;DHT22;17064;47.974;13.826;2023-05-23T12:17:21;20.20;99.90
30250;DHT22;17064;47.974;13.826;2023-05-23T12:22:23;20.00;99.90
30250;DHT22;17064;47.974;13.826;2023-05-23T12:27:28;19.70;99.90
30250;DHT22;17064;47.974;13.826;2023-05-23T12:32:29;19.40;99.90
30250;DHT22;17064;47.974;13.826;2023-05-23T12:37:30;19.10;99.90
30250;DHT22;17064;47.974;13.826;2023-05-23T12:42:52;18.90;99.90
30250;DHT22;17064;47.974;13.826;2023-05-23T12:47:53;18.80;99.90
30250;DHT22;17064;47.974;13.826;2023-05-23T12:52:53;18.70;99.90
30250;DHT22;17064;47.974;13.826;2023-05-23T12:57:54;18.60;99.90
30250;DHT22;17064;47.974;13.826;2023-05-23T13:02:55;18.40;99.90
30250;DHT22;17064;47.974;13.826;2023-05-23T13:07:56;18.30;99.90
30250;DHT22;17064;47.974;13.826;2023-05-23T13:12:58;18.20;99.90
30250;DHT22;17064;47.974;13.826;2023-05-23T13:17:59;18.10;99.90
30250;DHT22;17064;47.974;13.826;2023-05-23T13:23:00;18.00;99.90
30250;DHT22;17064;47.974;13.826;2023-05-23T13:28:02;17.90;99.90
30250;DHT22;17064;47.974;13.826;2023-05-23T13:33:03;17.90;99.90
30250;DHT22;17064;47.974;13.826;2023-05-23T13:38:04;17.90;99.90
30250;DHT22;17064;47.974;13.826;2023-05-23T13:43:05;18.10;99.90
30250;DHT22;17064;47.974;13.826;2023-05-23T13:48:06;18.20;99.90
30250;DHT22;17064;47.974;13.826;2023-05-23T13:53:06;18.50;99.90
30250;DHT22;17064;47.974;13.826;2023-05-23T13:58:13;18.80;99.90
30250;DHT22;17064;47.974;13.826;2023-05-23T14:03:14;19.10;99.90
30250;DHT22;17064;47.974;13.826;2023-05-23T14:08:15;19.20;99.90
30250;DHT22;17064;47.974;13.826;2023-05-23T14:13:16;19.30;99.90
30250;DHT22;17064;47.974;13.826;2023-05-23T14:18:17;19.30;99.90
30250;DHT22;17064;47.974;13.826;2023-05-23T14:23:18;19.30;99.90
30250;DHT22;17064;47.974;13.826;2023-05-23T14:28:19;19.40;99.90
30250;DHT22;17064;47.974;13.826;2023-05-23T14:33:21;19.60;99.90
30250;DHT22;17064;47.974;13.826;2023-05-23T14:38:22;19.80;99.90
30250;DHT22;17064;47.974;13.826;2023-05-23T14:43:23;19.80;99.90
30250;DHT22;17064;47.974;13.826;2023-05-23T14:48:23;19.90;99.90
30250;DHT22;17064;47.974;13.826;2023-05-23T14:53:24;20.10;99.90
30250;DHT22;17064;47.974;13.826;2023-05-23T14:58:26;20.40;99.90
30250;DHT22;17064;47.974;13.826;2023-05-23T15:03:27;20.30;99.90
30250;DHT22;17064;47.974;13.826;2023-05-23T15:08:28;20.20;99.90
30250;DHT22;17064;47.974;13.826;2023-05-23T15:13:28;20.00;99.90
30250;DHT22;17064;47.974;13.826;2023-05-23T15:18:29;19.80;99.90
30250;DHT22;17064;47.974;13.826;2023-05-23T15:23:30;19.70;99.90
30250;DHT22;17064;47.974;13.826;2023-05-23T15:28:31;19.60;99.90
30250;DHT22;17064;47.974;13.826;2023-05-23T15:33:32;19.50;99.90
30250;DHT22;17064;47.974;13.826;2023-05-23T15:38:32;19.40;99.90
30250;DHT22;17064;47.974;13.826;2023-05-23T15:43:33;19.30;99.90
30250;DHT22;17064;47.974;13.826;2023-05-23T15:48:34;19.30;99.90
30250;DHT22;17064;47.974;13.826;2023-05-23T15:53:35;19.30;99.90
30250;DHT22;17064;47.974;13.826;2023-05-23T15:58:36;19.10;99.90
30250;DHT22;17064;47.974;13.826;2023-05-23T16:03:37;19.00;99.90
30250;DHT22;17064;47.974;13.826;2023-05-23T16:08:37;18.90;99.90
30250;DHT22;17064;47.974;13.826;2023-05-23T16:13:38;18.70;99.90
30250;DHT22;17064;47.974;13.826;2023-05-23T16:18:39;18.50;99.90
30250;DHT22;17064;47.974;13.826;2023-05-23T16:23:39;18.30;99.90
30250;DHT22;17064;47.974;13.826;2023-05-23T16:28:40;17.90;99.90
30250;DHT22;17064;47.974;13.826;2023-05-23T16:33:43;17.60;99.90
30250;DHT22;17064;47.974;13.826;2023-05-23T16:38:44;17.30;99.90
30250;DHT22;17064;47.974;13.826;2023-05-23T16:43:44;17.00;99.90
30250;DHT22;17064;47.974;13.826;2023-05-23T16:48:45;16.70;99.90
30250;DHT22;17064;47.974;13.826;2023-05-23T16:53:46;16.60;99.90
30250;DHT22;17064;47.974;13.826;2023-05-23T16:58:47;16.50;99.90
30250;DHT22;17064;47.974;13.826;2023-05-23T17:03:47;16.50;99.90
30250;DHT22;17064;47.974;13.826;2023-05-23T17:08:48;16.70;99.90
30250;DHT22;17064;47.974;13.826;2023-05-23T17:13:49;16.80;99.90
30250;DHT22;17064;47.974;13.826;2023-05-23T17:18:49;16.90;99.90
30250;DHT22;17064;47.974;13.826;2023-05-23T17:23:50;16.90;99.90
30250;DHT22;17064;47.974;13.826;2023-05-23T17:28:51;16.70;99.90
30250;DHT22;17064;47.974;13.826;2023-05-23T17:33:52;16.60;99.90
30250;DHT22;17064;47.974;13.826;2023-05-23T17:38:53;16.50;99.90
30250;DHT22;17064;47.974;13.826;2023-05-23T17:43:53;16.30;99.90
30250;DHT22;17064;47.974;13.826;2023-05-23T17:48:54;16.20;99.90
30250;DHT22;17064;47.974;13.826;2023-05-23T17:53:55;16.10;99.90
30250;DHT22;17064;47.974;13.826;2023-05-23T17:58:55;16.00;99.90
30250;DHT22;17064;47.974;13.826;2023-05-23T18:03:56;15.80;99.90
30250;DHT22;17064;47.974;13.826;2023-05-23T18:08:57;15.70;99.90
30250;DHT22;17064;47.974;13.826;2023-05-23T18:13:57;15.70;99.90
30250;DHT22;17064;47.974;13.826;2023-05-23T18:18:58;15.70;99.90
30250;DHT22;17064;47.974;13.826;2023-05-23T18:24:00;15.70;99.90
30250;DHT22;17064;47.974;13.826;2023-05-23T18:29:00;15.70;99.90
30250;DHT22;17064;47.974;13.826;2023-05-23T18:34:03;15.60;99.90
30250;DHT22;17064;47.974;13.826;2023-05-23T18:39:05;15.60;99.90
30250;DHT22;17064;47.974;13.826;2023-05-23T18:44:05;15.60;99.90
30250;DHT22;17064;47.974;13.826;2023-05-23T18:49:06;15.60;99.90
30250;DHT22;17064;47.974;13.826;2023-05-23T18:54:07;15.60;99.90
30250;DHT22;17064;47.974;13.826;2023-05-23T18:59:08;15.60;99.90
30250;DHT22;17064;47.974;13.826;2023-05-23T19:04:13;15.60;99.90
30250;DHT22;17064;47.974;13.826;2023-05-23T19:09:14;15.60;99.90
30250;DHT22;17064;47.974;13.826;2023-05-23T19:14:14;15.50;99.90
30250;DHT22;17064;47.974;13.826;2023-05-23T19:19:15;15.50;99.90
30250;DHT22;17064;47.974;13.826;2023-05-23T19:24:16;15.40;99.90
30250;DHT22;17064;47.974;13.826;2023-05-23T19:29:17;15.40;99.90
30250;DHT22;17064;47.974;13.826;2023-05-23T19:34:17;15.30;99.90
30250;DHT22;17064;47.974;13.826;2023-05-23T19:39:18;15.40;99.90
30250;DHT22;17064;47.974;13.826;2023-05-23T19:44:19;15.30;99.90
30250;DHT22;17064;47.974;13.826;2023-05-23T19:49:20;15.30;99.90
30250;DHT22;17064;47.974;13.826;2023-05-23T19:54:21;15.20;99.90
30250;DHT22;17064;47.974;13.826;2023-05-23T19:59:23;15.10;99.90
30250;DHT22;17064;47.974;13.826;2023-05-23T20:04:24;15.10;99.90
30250;DHT22;17064;47.974;13.826;2023-05-23T20:09:24;15.10;99.90
30250;DHT22;17064;47.974;13.826;2023-05-23T20:14:25;15.10;99.90
30250;DHT22;17064;47.974;13.826;2023-05-23T20:19:26;15.10;99.90
30250;DHT22;17064;47.974;13.826;2023-05-23T20:24:27;15.10;99.90
30250;DHT22;17064;47.974;13.826;2023-05-23T20:29:31;15.10;99.90
30250;DHT22;17064;47.974;13.826;2023-05-23T20:34:37;15.10;99.90
30250;DHT22;17064;47.974;13.826;2023-05-23T20:39:39;15.10;99.90
30250;DHT22;17064;47.974;13.826;2023-05-23T20:44:41;15.10;99.90
30250;DHT22;17064;47.974;13.826;2023-05-23T20:49:41;15.20;99.90
30250;DHT22;17064;47.974;13.826;2023-05-23T20:54:42;15.20;99.90
30250;DHT22;17064;47.974;13.826;2023-05-23T20:59:43;15.10;99.90
30250;DHT22;17064;47.974;13.826;2023-05-23T21:04:43;15.20;99.90
30250;DHT22;17064;47.974;13.826;2023-05-23T21:09:44;15.20;99.90
30250;DHT22;17064;47.974;13.826;2023-05-23T21:14:45;15.10;99.90
30250;DHT22;17064;47.974;13.826;2023-05-23T21:19:46;15.10;99.90
30250;DHT22;17064;47.974;13.826;2023-05-23T21:24:47;15.10;99.90
30250;DHT22;17064;47.974;13.826;2023-05-23T21:29:47;15.10;99.90
30250;DHT22;17064;47.974;13.826;2023-05-23T21:34:48;15.10;99.90
30250;DHT22;17064;47.974;13.826;2023-05-23T21:39:49;15.10;99.90
30250;DHT22;17064;47.974;13.826;2023-05-23T21:44:50;15.00;99.90
30250;DHT22;17064;47.974;13.826;2023-05-23T21:49:50;15.10;99.90
30250;DHT22;17064;47.974;13.826;2023-05-23T21:54:51;15.00;99.90
30250;DHT22;17064;47.974;13.826;2023-05-23T21:59:52;15.00;99.90
30250;DHT22;17064;47.974;13.826;2023-05-23T22:04:52;15.00;99.90
30250;DHT22;17064;47.974;13.826;2023-05-23T22:09:53;15.00;99.90
30250;DHT22;17064;47.974;13.826;2023-05-23T22:14:55;15.00;99.90
30250;DHT22;17064;47.974;13.826;2023-05-23T22:19:56;15.00;99.90
30250;DHT22;17064;47.974;13.826;2023-05-23T22:24:57;15.00;99.90
30250;DHT22;17064;47.974;13.826;2023-05-23T22:29:58;15.00;99.90
30250;DHT22;17064;47.974;13.826;2023-05-23T22:34:58;14.90;99.90
30250;DHT22;17064;47.974;13.826;2023-05-23T22:39:59;14.90;99.90
30250;DHT22;17064;47.974;13.826;2023-05-23T22:45:00;14.90;99.90
30250;DHT22;17064;47.974;13.826;2023-05-23T22:50:01;14.90;99.90
30250;DHT22;17064;47.974;13.826;2023-05-23T22:55:02;14.80;99.90
30250;DHT22;17064;47.974;13.826;2023-05-23T23:00:04;14.70;99.90
30250;DHT22;17064;47.974;13.826;2023-05-23T23:05:05;14.70;99.90
30250;DHT22;17064;47.974;13.826;2023-05-23T23:10:07;14.60;99.90
30250;DHT22;17064;47.974;13.826;2023-05-23T23:15:09;14.60;99.90
30250;DHT22;17064;47.974;13.826;2023-05-23T23:20:10;14.50;99.90
30250;DHT22;17064;47.974;13.826;2023-05-23T23:25:12;14.40;99.90
30250;DHT22;17064;47.974;13.826;2023-05-23T23:30:13;14.30;99.90
30250;DHT22;17064;47.974;13.826;2023-05-23T23:35:14;14.30;99.90
30250;DHT22;17064;47.974;13.826;2023-05-23T23:40:15;14.20;99.90
30250;DHT22;17064;47.974;13.826;2023-05-23T23:45:16;14.10;99.90
30250;DHT22;17064;47.974;13.826;2023-05-23T23:50:17;14.10;99.90
30250;DHT22;17064;47.974;13.826;2023-05-23T23:55:17;14.00;99.90
